Time,TemperatureF,DewpointF,PressureIn,WindDirection,WindDirectionDegrees,WindSpeedMPH,WindSpeedGustMPH,Humidity,HourlyPrecipIn,Conditions,Clouds,dailyrainin,SoftwareType,DateUTC
2013-10-12 00:01:00,41.2,37.9,30.12,NNE,22,0.0,0.0,88,0.00,,,0.00,WUHU21623XXSP,2013-10-12 04:01:00,
2013-10-12 00:06:00,41.4,38.0,30.12,NNE,22,0.0,0.0,88,0.00,,,0.00,WUHU21623XXSP,2013-10-12 04:06:00,
2013-10-12 00:11:00,41.2,37.9,30.11,NNE,22,0.0,0.0,88,0.00,,,0.00,WUHU21623XXSP,2013-10-12 04:11:00,
2013-10-12 00:16:00,41.0,37.7,30.11,NNE,22,0.0,0.0,88,0.00,,,0.00,WUHU21623XXSP,2013-10-12 04:16:00,
2013-10-12 00:21:00,40.8,37.5,30.11,NNE,22,0.0,0.0,88,0.00,,,0.00,WUHU21623XXSP,2013-10-12 04:21:00,
2013-10-12 00:26:00,41.7,38.4,30.11,NNE,22,0.0,0.0,88,0.00,,,0.00,WUHU21623XXSP,2013-10-12 04:26:00,
2013-10-12 00:31:00,41.5,38.2,30.11,NNE,22,0.0,0.0,88,0.00,,,0.00,WUHU21623XXSP,2013-10-12 04:31:00,
2013-10-12 00:36:00,41.7,38.4,30.12,NNE,22,0.0,0.0,88,0.00,,,0.00,WUHU21623XXSP,2013-10-12 04:36:00,
2013-10-12 00:41:00,41.7,38.4,30.12,NNE,22,0.0,0.0,88,0.00,,,0.00,WUHU21623XXSP,2013-10-12 04:41:00,
2013-10-12 00:46:00,41.5,38.2,30.12,NNE,22,0.0,0.0,88,0.00,,,0.00,WUHU21623XXSP,2013-10-12 04:46:00,
2013-10-12 00:51:00,41.2,37.9,30.12,NNE,22,0.0,0.0,88,0.00,,,0.00,WUHU21623XXSP,2013-10-12 04:51:00,
2013-10-12 00:56:00,41.2,37.9,30.12,NNE,22,0.0,0.0,88,0.00,,,0.00,WUHU21623XXSP,2013-10-12 04:56:00,
2013-10-12 01:01:00,41.2,37.9,30.12,NNE,22,0.0,0.0,88,0.00,,,0.00,WUHU21623XXSP,2013-10-12 05:01:00,
2013-10-12 01:06:00,40.8,37.5,30.12,NNE,22,0.0,0.0,88,0.00,,,0.00,WUHU21623XXSP,2013-10-12 05:06:00,
2013-10-12 01:11:00,40.6,37.3,30.12,NNE,22,0.0,0.0,88,0.00,,,0.00,WUHU21623XXSP,2013-10-12 05:11:00,
2013-10-12 01:16:00,40.3,37.0,30.12,NNE,22,0.0,0.0,88,0.00,,,0.00,WUHU21623XXSP,2013-10-12 05:16:00,
2013-10-12 01:21:00,40.3,37.0,30.12,NNE,22,0.0,0.0,88,0.00,,,0.00,WUHU21623XXSP,2013-10-12 05:21:00,
2013-10-12 01:26:00,40.6,37.3,30.12,NNE,22,0.0,0.0,88,0.00,,,0.00,WUHU21623XXSP,2013-10-12 05:26:00,
2013-10-12 01:31:00,40.6,37.3,30.12,NNE,22,0.0,0.0,88,0.00,,,0.00,WUHU21623XXSP,2013-10-12 05:31:00,
2013-10-12 01:36:00,41.4,38.0,30.13,NNE,22,0.0,0.0,88,0.00,,,0.00,WUHU21623XXSP,2013-10-12 05:36:00,
2013-10-12 01:41:00,41.2,37.9,30.12,NNE,22,0.0,0.0,88,0.00,,,0.00,WUHU21623XXSP,2013-10-12 05:41:00,
2013-10-12 01:46:00,40.6,37.3,30.13,NNE,22,0.0,0.0,88,0.00,,,0.00,WUHU21623XXSP,2013-10-12 05:46:00,
2013-10-12 01:51:00,40.3,37.0,30.13,NNE,22,0.0,0.0,88,0.00,,,0.00,WUHU21623XXSP,2013-10-12 05:51:00,
2013-10-12 01:56:00,39.9,36.6,30.13,NNE,22,0.0,0.0,88,0.00,,,0.00,WUHU21623XXSP,2013-10-12 05:56:00,
2013-10-12 02:01:00,39.6,36.3,30.13,NNE,22,0.0,0.0,88,0.00,,,0.00,WUHU21623XXSP,2013-10-12 06:01:00,
2013-10-12 02:06:00,39.6,36.3,30.13,NNE,22,0.0,0.0,88,0.00,,,0.00,WUHU21623XXSP,2013-10-12 06:06:00,
2013-10-12 02:11:00,39.4,36.1,30.13,NNE,22,0.0,0.0,88,0.00,,,0.00,WUHU21623XXSP,2013-10-12 06:11:00,
2013-10-12 02:16:00,39.6,36.3,30.13,NNE,22,0.0,0.0,88,0.00,,,0.00,WUHU21623XXSP,2013-10-12 06:16:00,
2013-10-12 02:21:00,39.0,35.7,30.13,NNE,22,0.0,0.0,88,0.00,,,0.00,WUHU21623XXSP,2013-10-12 06:21:00,
2013-10-12 02:26:00,39.0,35.7,30.13,NNE,22,0.0,0.0,88,0.00,,,0.00,WUHU21623XXSP,2013-10-12 06:26:00,
2013-10-12 02:31:00,38.8,35.6,30.13,NNE,22,0.0,0.0,88,0.00,,,0.00,WUHU21623XXSP,2013-10-12 06:31:00,
2013-10-12 02:36:00,38.3,35.0,30.13,NNE,22,0.0,0.0,88,0.00,,,0.00,WUHU21623XXSP,2013-10-12 06:36:00,
2013-10-12 02:41:00,38.3,35.0,30.13,NNE,22,0.0,0.0,88,0.00,,,0.00,WUHU21623XXSP,2013-10-12 06:41:00,
2013-10-12 02:46:00,38.5,35.2,30.13,NNE,22,0.0,0.0,88,0.00,,,0.00,WUHU21623XXSP,2013-10-12 06:46:00,
2013-10-12 02:51:00,38.5,35.2,30.13,NNE,22,0.0,0.0,88,0.00,,,0.00,WUHU21623XXSP,2013-10-12 06:51:00,
2013-10-12 02:56:00,39.0,35.7,30.13,NNE,22,0.0,0.0,88,0.00,,,0.00,WUHU21623XXSP,2013-10-12 06:56:00,
2013-10-12 03:01:00,39.0,35.7,30.13,NNE,22,0.0,0.0,88,0.00,,,0.00,WUHU21623XXSP,2013-10-12 07:01:00,
2013-10-12 03:06:00,39.9,36.6,30.13,NNE,22,0.0,0.0,88,0.00,,,0.00,WUHU21623XXSP,2013-10-12 07:06:00,
2013-10-12 03:11:00,40.5,37.1,30.13,NNE,22,0.0,0.0,88,0.00,,,0.00,WUHU21623XXSP,2013-10-12 07:11:00,
2013-10-12 03:16:00,40.8,37.5,30.13,NNE,22,0.0,0.0,88,0.00,,,0.00,WUHU21623XXSP,2013-10-12 07:16:00,
2013-10-12 03:21:00,40.8,37.5,30.14,NNE,22,0.0,0.0,88,0.00,,,0.00,WUHU21623XXSP,2013-10-12 07:21:00,
2013-10-12 03:26:00,40.5,37.1,30.13,NNE,22,0.0,0.0,88,0.00,,,0.00,WUHU21623XXSP,2013-10-12 07:26:00,
2013-10-12 03:31:00,39.9,36.6,30.13,NNE,22,0.0,0.0,88,0.00,,,0.00,WUHU21623XXSP,2013-10-12 07:31:00,
2013-10-12 03:36:00,39.4,36.1,30.13,NNE,22,0.0,0.0,88,0.00,,,0.00,WUHU21623XXSP,2013-10-12 07:36:00,
2013-10-12 03:41:00,38.8,35.6,30.14,NNE,22,0.0,0.0,88,0.00,,,0.00,WUHU21623XXSP,2013-10-12 07:41:00,
2013-10-12 03:46:00,38.1,34.8,30.14,NNE,22,0.0,0.0,88,0.00,,,0.00,WUHU21623XXSP,2013-10-12 07:46:00,
2013-10-12 03:51:00,37.9,34.7,30.14,NNE,22,0.0,0.0,88,0.00,,,0.00,WUHU21623XXSP,2013-10-12 07:51:00,
2013-10-12 03:56:00,37.8,34.5,30.13,NNE,22,0.0,0.0,88,0.00,,,0.00,WUHU21623XXSP,2013-10-12 07:56:00,
2013-10-12 04:01:00,37.6,34.3,30.13,NNE,22,0.0,0.0,88,0.00,,,0.00,WUHU21623XXSP,2013-10-12 08:01:00,
2013-10-12 04:06:00,37.2,33.9,30.14,NNE,22,0.0,0.0,88,0.00,,,0.00,WUHU21623XXSP,2013-10-12 08:06:00,
2013-10-12 04:11:00,36.3,33.0,30.14,NNE,22,0.0,0.0,88,0.00,,,0.00,WUHU21623XXSP,2013-10-12 08:11:00,
2013-10-12 04:16:00,36.0,32.7,30.14,NNE,22,0.0,0.0,88,0.00,,,0.00,WUHU21623XXSP,2013-10-12 08:16:00,
2013-10-12 04:21:00,36.5,33.2,30.15,NNE,22,0.0,0.0,88,0.00,,,0.00,WUHU21623XXSP,2013-10-12 08:21:00,
2013-10-12 04:26:00,36.5,33.2,30.15,NNE,22,0.0,0.0,88,0.00,,,0.00,WUHU21623XXSP,2013-10-12 08:26:00,
2013-10-12 04:31:00,36.5,33.2,30.15,NNE,22,0.0,0.0,88,0.00,,,0.00,WUHU21623XXSP,2013-10-12 08:31:00,
2013-10-12 04:36:00,36.5,33.2,30.15,NNE,22,0.0,0.0,88,0.00,,,0.00,WUHU21623XXSP,2013-10-12 08:36:00,
2013-10-12 04:41:00,36.5,33.2,30.15,NNE,22,0.0,0.0,88,0.00,,,0.00,WUHU21623XXSP,2013-10-12 08:41:00,
2013-10-12 04:46:00,36.1,32.9,30.15,NNE,22,0.0,0.0,88,0.00,,,0.00,WUHU21623XXSP,2013-10-12 08:46:00,
2013-10-12 04:51:00,36.3,33.0,30.15,NNE,22,0.0,0.0,88,0.00,,,0.00,WUHU21623XXSP,2013-10-12 08:51:00,
2013-10-12 04:56:00,36.5,33.2,30.15,NNE,22,0.0,0.0,88,0.00,,,0.00,WUHU21623XXSP,2013-10-12 08:56:00,
2013-10-12 05:01:00,36.7,33.4,30.16,NNE,22,0.0,0.0,88,0.00,,,0.00,WUHU21623XXSP,2013-10-12 09:01:00,
2013-10-12 05:06:00,36.7,33.4,30.16,NNE,22,0.0,0.0,88,0.00,,,0.00,WUHU21623XXSP,2013-10-12 09:06:00,
2013-10-12 05:11:00,36.5,33.2,30.16,NNE,22,0.0,0.0,88,0.00,,,0.00,WUHU21623XXSP,2013-10-12 09:11:00,
2013-10-12 05:16:00,36.5,33.2,30.16,NNE,22,0.0,0.0,88,0.00,,,0.00,WUHU21623XXSP,2013-10-12 09:16:00,
2013-10-12 05:21:00,36.3,33.0,30.16,NNE,22,0.0,0.0,88,0.00,,,0.00,WUHU21623XXSP,2013-10-12 09:21:00,
2013-10-12 05:26:00,36.1,32.9,30.16,NNE,22,0.0,0.0,88,0.00,,,0.00,WUHU21623XXSP,2013-10-12 09:26:00,
2013-10-12 05:31:00,35.8,32.5,30.16,NNE,22,0.0,0.0,88,0.00,,,0.00,WUHU21623XXSP,2013-10-12 09:31:00,
2013-10-12 05:36:00,35.4,32.1,30.16,NNE,22,0.0,0.0,88,0.00,,,0.00,WUHU21623XXSP,2013-10-12 09:36:00,
2013-10-12 05:41:00,35.4,32.1,30.16,NNE,22,0.0,0.0,88,0.00,,,0.00,WUHU21623XXSP,2013-10-12 09:41:00,
2013-10-12 05:46:00,35.8,32.5,30.16,NNE,22,0.0,0.0,88,0.00,,,0.00,WUHU21623XXSP,2013-10-12 09:46:00,
2013-10-12 05:51:00,35.2,32.0,30.16,NNE,22,0.0,0.0,88,0.00,,,0.00,WUHU21623XXSP,2013-10-12 09:51:00,
2013-10-12 05:56:00,35.4,32.1,30.17,NNE,22,0.0,0.0,88,0.00,,,0.00,WUHU21623XXSP,2013-10-12 09:56:00,
2013-10-12 06:01:00,35.6,32.3,30.17,NNE,22,0.0,0.0,88,0.00,,,0.00,WUHU21623XXSP,2013-10-12 10:01:00,
2013-10-12 06:06:00,35.6,32.3,30.17,NNE,22,0.0,0.0,88,0.00,,,0.00,WUHU21623XXSP,2013-10-12 10:06:00,
2013-10-12 06:11:00,35.8,32.5,30.17,NNE,22,0.0,0.0,88,0.00,,,0.00,WUHU21623XXSP,2013-10-12 10:11:00,
2013-10-12 06:16:00,35.8,32.5,30.17,NNE,22,0.0,0.0,88,0.00,,,0.00,WUHU21623XXSP,2013-10-12 10:16:00,
2013-10-12 06:21:00,36.0,32.7,30.18,NNE,22,0.0,0.0,88,0.00,,,0.00,WUHU21623XXSP,2013-10-12 10:21:00,
2013-10-12 06:26:00,36.0,32.7,30.18,NNE,22,0.0,0.0,88,0.00,,,0.00,WUHU21623XXSP,2013-10-12 10:26:00,
2013-10-12 06:31:00,36.1,32.9,30.18,NNE,22,0.0,0.0,88,0.00,,,0.00,WUHU21623XXSP,2013-10-12 10:31:00,
2013-10-12 06:36:00,36.1,32.9,30.18,NNE,22,0.0,0.0,88,0.00,,,0.00,WUHU21623XXSP,2013-10-12 10:36:00,
2013-10-12 06:41:00,35.4,32.1,30.18,NNE,22,0.0,0.0,88,0.00,,,0.00,WUHU21623XXSP,2013-10-12 10:41:00,
2013-10-12 06:46:00,35.2,32.0,30.18,NNE,22,0.0,0.0,88,0.00,,,0.00,WUHU21623XXSP,2013-10-12 10:46:00,
2013-10-12 06:51:00,35.4,32.1,30.18,NNE,22,0.0,0.0,88,0.00,,,0.00,WUHU21623XXSP,2013-10-12 10:51:00,
2013-10-12 06:56:00,36.1,32.9,30.18,NNE,22,0.0,0.0,88,0.00,,,0.00,WUHU21623XXSP,2013-10-12 10:56:00,
2013-10-12 07:01:00,36.3,33.0,30.18,NNE,22,0.0,0.0,88,0.00,,,0.00,WUHU21623XXSP,2013-10-12 11:01:00,
2013-10-12 07:06:00,36.3,33.0,30.18,NNE,22,0.0,0.0,88,0.00,,,0.00,WUHU21623XXSP,2013-10-12 11:06:00,
2013-10-12 07:11:00,36.3,33.0,30.19,NNE,22,0.0,0.0,88,0.00,,,0.00,WUHU21623XXSP,2013-10-12 11:11:00,
2013-10-12 07:16:00,36.3,33.0,30.19,NNE,22,0.0,0.0,88,0.00,,,0.00,WUHU21623XXSP,2013-10-12 11:16:00,
2013-10-12 07:21:00,36.1,32.9,30.19,NNE,22,0.0,0.0,88,0.00,,,0.00,WUHU21623XXSP,2013-10-12 11:21:00,
2013-10-12 07:26:00,36.1,32.9,30.19,NNE,22,0.0,0.0,88,0.00,,,0.00,WUHU21623XXSP,2013-10-12 11:26:00,
2013-10-12 07:31:00,36.3,33.0,30.19,NNE,22,0.0,0.0,88,0.00,,,0.00,WUHU21623XXSP,2013-10-12 11:31:00,
2013-10-12 07:36:00,36.1,32.9,30.19,NNE,22,0.0,0.0,88,0.00,,,0.00,WUHU21623XXSP,2013-10-12 11:36:00,
2013-10-12 07:41:00,36.1,32.9,30.19,NNE,22,0.0,0.0,88,0.00,,,0.00,WUHU21623XXSP,2013-10-12 11:41:00,
2013-10-12 07:46:00,36.5,33.2,30.19,NNE,22,0.0,0.0,88,0.00,,,0.00,WUHU21623XXSP,2013-10-12 11:46:00,
2013-10-12 07:51:00,37.4,34.4,30.19,NNE,22,0.0,0.0,89,0.00,,,0.00,WUHU21623XXSP,2013-10-12 11:51:00,
2013-10-12 07:56:00,38.3,35.0,30.19,NNE,22,0.0,0.0,88,0.00,,,0.00,WUHU21623XXSP,2013-10-12 11:56:00,
2013-10-12 08:01:00,40.1,36.8,30.19,NNE,22,0.0,0.0,88,0.00,,,0.00,WUHU21623XXSP,2013-10-12 12:01:00,
2013-10-12 08:06:00,41.2,37.9,30.20,NNE,22,0.0,0.0,88,0.00,,,0.00,WUHU21623XXSP,2013-10-12 12:06:00,
2013-10-12 08:11:00,42.6,39.3,30.20,NNE,22,0.0,0.0,88,0.00,,,0.00,WUHU21623XXSP,2013-10-12 12:11:00,
2013-10-12 08:16:00,44.4,41.1,30.20,NNE,22,0.0,0.0,88,0.00,,,0.00,WUHU21623XXSP,2013-10-12 12:16:00,
2013-10-12 08:21:00,45.7,42.4,30.20,NNE,22,0.0,0.0,88,0.00,,,0.00,WUHU21623XXSP,2013-10-12 12:21:00,
2013-10-12 08:26:00,46.2,42.9,30.20,NNE,22,0.0,0.0,88,0.00,,,0.00,WUHU21623XXSP,2013-10-12 12:26:00,
2013-10-12 08:31:00,46.9,43.3,30.20,NNE,22,0.0,0.0,87,0.00,,,0.00,WUHU21623XXSP,2013-10-12 12:31:00,
2013-10-12 08:36:00,48.4,44.7,30.20,NNE,22,0.0,0.0,87,0.00,,,0.00,WUHU21623XXSP,2013-10-12 12:36:00,
2013-10-12 08:41:00,49.3,45.5,30.20,NNE,22,0.0,0.0,87,0.00,,,0.00,WUHU21623XXSP,2013-10-12 12:41:00,
2013-10-12 08:46:00,51.1,47.0,30.20,NNE,22,0.0,0.0,86,0.00,,,0.00,WUHU21623XXSP,2013-10-12 12:46:00,
2013-10-12 08:51:00,51.6,47.2,30.20,NNE,22,0.0,0.0,85,0.00,,,0.00,WUHU21623XXSP,2013-10-12 12:51:00,
2013-10-12 08:56:00,52.2,47.4,30.20,NNE,22,0.0,0.0,84,0.00,,,0.00,WUHU21623XXSP,2013-10-12 12:56:00,
2013-10-12 09:01:00,53.8,48.7,30.20,NNE,22,0.0,0.0,83,0.00,,,0.00,WUHU21623XXSP,2013-10-12 13:01:00,
2013-10-12 09:06:00,54.9,49.4,30.20,NNE,22,0.0,0.0,82,0.00,,,0.00,WUHU21623XXSP,2013-10-12 13:06:00,
2013-10-12 09:11:00,55.8,49.3,30.20,NNE,22,0.0,0.0,79,0.00,,,0.00,WUHU21623XXSP,2013-10-12 13:11:00,
2013-10-12 09:16:00,55.9,46.7,30.20,NNE,22,0.0,0.0,71,0.00,,,0.00,WUHU21623XXSP,2013-10-12 13:16:00,
2013-10-12 09:21:00,56.8,48.9,30.21,NNE,22,0.0,0.0,75,0.00,,,0.00,WUHU21623XXSP,2013-10-12 13:21:00,
2013-10-12 09:26:00,57.6,48.2,30.20,NNE,22,0.0,0.0,71,0.00,,,0.00,WUHU21623XXSP,2013-10-12 13:26:00,
2013-10-12 09:31:00,58.8,48.7,30.20,NNE,22,0.0,0.0,69,0.00,,,0.00,WUHU21623XXSP,2013-10-12 13:31:00,
2013-10-12 09:36:00,58.8,48.3,30.20,NNE,22,0.0,0.0,68,0.00,,,0.00,WUHU21623XXSP,2013-10-12 13:36:00,
2013-10-12 09:41:00,59.9,50.5,30.21,NNE,22,0.0,0.0,71,0.00,,,0.00,WUHU21623XXSP,2013-10-12 13:41:00,
2013-10-12 09:46:00,60.6,51.3,30.20,NNE,22,0.0,0.0,71,0.00,,,0.00,WUHU21623XXSP,2013-10-12 13:46:00,
2013-10-12 09:51:00,61.3,50.7,30.21,NNE,22,0.0,0.0,68,0.00,,,0.00,WUHU21623XXSP,2013-10-12 13:51:00,
2013-10-12 09:56:00,61.5,50.5,30.21,NNE,22,0.0,0.0,67,0.00,,,0.00,WUHU21623XXSP,2013-10-12 13:56:00,
2013-10-12 10:01:00,62.2,49.9,30.21,NNE,22,0.0,0.0,64,0.00,,,0.00,WUHU21623XXSP,2013-10-12 14:01:00,
2013-10-12 10:06:00,62.8,49.5,30.21,NNE,22,0.0,0.0,62,0.00,,,0.00,WUHU21623XXSP,2013-10-12 14:06:00,
2013-10-12 10:11:00,62.2,49.5,30.20,NNE,22,0.0,0.0,63,0.00,,,0.00,WUHU21623XXSP,2013-10-12 14:11:00,
2013-10-12 10:16:00,62.8,49.1,30.21,NNE,22,0.0,0.0,61,0.00,,,0.00,WUHU21623XXSP,2013-10-12 14:16:00,
2013-10-12 10:21:00,62.6,49.8,30.21,NNE,22,0.0,0.0,63,0.00,,,0.00,WUHU21623XXSP,2013-10-12 14:21:00,
2013-10-12 10:26:00,63.3,49.6,30.21,NNE,22,0.0,0.0,61,0.00,,,0.00,WUHU21623XXSP,2013-10-12 14:26:00,
2013-10-12 10:31:00,64.2,51.3,30.21,NNE,22,0.0,0.0,63,0.00,,,0.00,WUHU21623XXSP,2013-10-12 14:31:00,
2013-10-12 10:36:00,64.6,50.8,30.21,NNE,22,0.0,0.0,61,0.00,,,0.00,WUHU21623XXSP,2013-10-12 14:36:00,
2013-10-12 10:41:00,65.1,50.9,30.21,NNE,22,0.0,0.0,60,0.00,,,0.00,WUHU21623XXSP,2013-10-12 14:41:00,
2013-10-12 10:46:00,66.0,51.8,30.21,NNE,22,0.0,0.0,60,0.00,,,0.00,WUHU21623XXSP,2013-10-12 14:46:00,
2013-10-12 10:51:00,66.7,52.0,30.21,NNE,22,0.0,0.0,59,0.00,,,0.00,WUHU21623XXSP,2013-10-12 14:51:00,
2013-10-12 10:56:00,66.0,51.3,30.21,NNE,22,0.0,0.0,59,0.00,,,0.00,WUHU21623XXSP,2013-10-12 14:56:00,
2013-10-12 11:01:00,66.0,51.3,30.21,NNE,22,0.0,2.7,59,0.00,,,0.00,WUHU21623XXSP,2013-10-12 15:01:00,
2013-10-12 11:06:00,66.9,52.1,30.21,NNE,22,0.0,2.7,59,0.00,,,0.00,WUHU21623XXSP,2013-10-12 15:06:00,
2013-10-12 11:11:00,67.6,51.8,30.21,NNE,22,0.0,0.0,57,0.00,,,0.00,WUHU21623XXSP,2013-10-12 15:11:00,
2013-10-12 11:16:00,67.5,51.2,30.20,NNE,22,3.8,3.8,56,0.00,,,0.00,WUHU21623XXSP,2013-10-12 15:16:00,
2013-10-12 11:21:00,68.2,51.3,30.20,NNE,22,0.0,3.8,55,0.00,,,0.00,WUHU21623XXSP,2013-10-12 15:21:00,
2013-10-12 11:26:00,67.8,52.0,30.20,NNE,22,0.0,0.0,57,0.00,,,0.00,WUHU21623XXSP,2013-10-12 15:26:00,
2013-10-12 11:31:00,68.7,52.8,30.21,NNE,22,1.6,2.5,57,0.00,,,0.00,WUHU21623XXSP,2013-10-12 15:31:00,
2013-10-12 11:36:00,69.6,53.2,30.21,NNE,22,3.8,3.8,56,0.00,,,0.00,WUHU21623XXSP,2013-10-12 15:36:00,
2013-10-12 11:41:00,70.0,54.0,30.20,NNE,22,0.0,3.8,57,0.00,,,0.00,WUHU21623XXSP,2013-10-12 15:41:00,
2013-10-12 11:46:00,69.6,52.7,30.20,NNE,22,0.0,4.9,55,0.00,,,0.00,WUHU21623XXSP,2013-10-12 15:46:00,
2013-10-12 11:51:00,70.0,53.0,30.20,NNE,22,0.0,4.9,55,0.00,,,0.00,WUHU21623XXSP,2013-10-12 15:51:00,
2013-10-12 11:56:00,70.2,53.7,30.20,NNE,22,2.7,2.7,56,0.00,,,0.00,WUHU21623XXSP,2013-10-12 15:56:00,
2013-10-12 12:01:00,69.6,52.2,30.20,NNE,22,0.0,2.7,54,0.00,,,0.00,WUHU21623XXSP,2013-10-12 16:01:00,
2013-10-12 12:06:00,70.0,53.0,30.21,NNE,22,2.0,2.0,55,0.00,,,0.00,WUHU21623XXSP,2013-10-12 16:06:00,
2013-10-12 12:11:00,69.6,52.7,30.20,NNE,22,0.0,3.8,55,0.00,,,0.00,WUHU21623XXSP,2013-10-12 16:11:00,
2013-10-12 12:16:00,69.4,52.5,30.21,NNE,22,1.6,3.8,55,0.00,,,0.00,WUHU21623XXSP,2013-10-12 16:16:00,
2013-10-12 12:21:00,69.4,52.0,30.21,NNE,22,0.0,2.9,54,0.00,,,0.00,WUHU21623XXSP,2013-10-12 16:21:00,
2013-10-12 12:26:00,70.3,52.9,30.21,NNE,22,0.0,0.0,54,0.00,,,0.00,WUHU21623XXSP,2013-10-12 16:26:00,
2013-10-12 12:31:00,70.0,52.5,30.21,NNE,22,0.0,0.0,54,0.00,,,0.00,WUHU21623XXSP,2013-10-12 16:31:00,
2013-10-12 12:36:00,70.5,53.5,30.21,NNE,22,0.0,1.1,55,0.00,,,0.00,WUHU21623XXSP,2013-10-12 16:36:00,
2013-10-12 12:41:00,70.9,52.3,30.20,NNE,22,0.0,2.7,52,0.00,,,0.00,WUHU21623XXSP,2013-10-12 16:41:00,
2013-10-12 12:46:00,70.3,51.9,30.20,NNE,22,1.1,2.7,52,0.00,,,0.00,WUHU21623XXSP,2013-10-12 16:46:00,
2013-10-12 12:51:00,70.5,52.0,30.20,NNE,22,2.0,2.0,52,0.00,,,0.00,WUHU21623XXSP,2013-10-12 16:51:00,
2013-10-12 12:56:00,70.9,52.3,30.20,NNE,22,0.0,4.5,52,0.00,,,0.00,WUHU21623XXSP,2013-10-12 16:56:00,
2013-10-12 13:01:00,71.2,52.7,30.19,NNE,22,0.0,4.5,52,0.00,,,0.00,WUHU21623XXSP,2013-10-12 17:01:00,
2013-10-12 13:06:00,71.2,51.7,30.20,NNE,22,0.0,1.8,50,0.00,,,0.00,WUHU21623XXSP,2013-10-12 17:06:00,
2013-10-12 13:11:00,70.9,52.3,30.19,NNE,22,2.0,2.0,52,0.00,,,0.00,WUHU21623XXSP,2013-10-12 17:11:00,
2013-10-12 13:16:00,70.9,52.3,30.19,NNE,22,5.8,5.8,52,0.00,,,0.00,WUHU21623XXSP,2013-10-12 17:16:00,
2013-10-12 13:21:00,70.9,52.3,30.19,NNE,22,0.0,5.8,52,0.00,,,0.00,WUHU21623XXSP,2013-10-12 17:21:00,
2013-10-12 13:26:00,71.2,52.7,30.19,NNE,22,2.0,2.0,52,0.00,,,0.00,WUHU21623XXSP,2013-10-12 17:26:00,
2013-10-12 13:31:00,70.7,51.7,30.19,NNE,22,1.1,2.0,51,0.00,,,0.00,WUHU21623XXSP,2013-10-12 17:31:00,
2013-10-12 13:36:00,71.2,52.7,30.19,NNE,22,0.0,3.4,52,0.00,,,0.00,WUHU21623XXSP,2013-10-12 17:36:00,
2013-10-12 13:41:00,71.4,52.8,30.19,East,90,0.0,7.4,52,0.00,,,0.00,WUHU21623XXSP,2013-10-12 17:41:00,
2013-10-12 13:46:00,70.9,52.3,30.19,NNE,22,0.0,7.4,52,0.00,,,0.00,WUHU21623XXSP,2013-10-12 17:46:00,
2013-10-12 13:51:00,70.9,51.8,30.18,East,90,2.5,2.5,51,0.00,,,0.00,WUHU21623XXSP,2013-10-12 17:51:00,
2013-10-12 13:56:00,71.2,52.7,30.18,West,270,0.0,2.5,52,0.00,,,0.00,WUHU21623XXSP,2013-10-12 17:56:00,
2013-10-12 14:01:00,71.6,52.5,30.18,SSE,157,0.0,2.9,51,0.00,,,0.00,WUHU21623XXSP,2013-10-12 18:01:00,
2013-10-12 14:06:00,71.6,52.0,30.18,West,270,0.0,2.9,50,0.00,,,0.00,WUHU21623XXSP,2013-10-12 18:06:00,
2013-10-12 14:11:00,71.4,52.3,30.19,West,270,0.0,11.6,51,0.00,,,0.00,WUHU21623XXSP,2013-10-12 18:11:00,
2013-10-12 14:16:00,71.4,51.8,30.18,WSW,247,3.6,11.6,50,0.00,,,0.00,WUHU21623XXSP,2013-10-12 18:16:00,
2013-10-12 14:21:00,71.4,52.3,30.18,WSW,247,4.0,4.0,51,0.00,,,0.00,WUHU21623XXSP,2013-10-12 18:21:00,
2013-10-12 14:26:00,71.4,52.3,30.18,WSW,247,0.0,4.0,51,0.00,,,0.00,WUHU21623XXSP,2013-10-12 18:26:00,
2013-10-12 14:31:00,72.0,51.7,30.18,WSW,247,0.0,3.1,49,0.00,,,0.00,WUHU21623XXSP,2013-10-12 18:31:00,
2013-10-12 14:36:00,71.4,51.8,30.18,WSW,247,0.0,6.0,50,0.00,,,0.00,WUHU21623XXSP,2013-10-12 18:36:00,
2013-10-12 14:41:00,72.0,53.3,30.18,WSW,247,0.0,6.0,52,0.00,,,0.00,WUHU21623XXSP,2013-10-12 18:41:00,
2013-10-12 14:46:00,71.8,53.2,30.17,WSW,247,0.0,0.0,52,0.00,,,0.00,WUHU21623XXSP,2013-10-12 18:46:00,
2013-10-12 14:51:00,72.0,52.3,30.17,WSW,247,2.5,2.5,50,0.00,,,0.00,WUHU21623XXSP,2013-10-12 18:51:00,
2013-10-12 14:56:00,72.0,52.8,30.17,WSW,247,0.0,2.5,51,0.00,,,0.00,WUHU21623XXSP,2013-10-12 18:56:00,
2013-10-12 15:01:00,71.6,52.5,30.18,WSW,247,3.8,3.8,51,0.00,,,0.00,WUHU21623XXSP,2013-10-12 19:01:00,
2013-10-12 15:06:00,71.6,52.5,30.18,WSW,247,0.0,3.8,51,0.00,,,0.00,WUHU21623XXSP,2013-10-12 19:06:00,
2013-10-12 15:11:00,71.8,52.6,30.18,WSW,247,7.4,7.4,51,0.00,,,0.00,WUHU21623XXSP,2013-10-12 19:11:00,
2013-10-12 15:16:00,72.1,53.0,30.18,WSW,247,2.5,7.4,51,0.00,,,0.00,WUHU21623XXSP,2013-10-12 19:16:00,
2013-10-12 15:21:00,72.1,52.5,30.18,WSW,247,0.0,2.5,50,0.00,,,0.00,WUHU21623XXSP,2013-10-12 19:21:00,
2013-10-12 15:26:00,72.1,52.5,30.18,WSW,247,2.0,2.0,50,0.00,,,0.00,WUHU21623XXSP,2013-10-12 19:26:00,
2013-10-12 15:31:00,72.1,52.5,30.18,WSW,247,0.0,2.7,50,0.00,,,0.00,WUHU21623XXSP,2013-10-12 19:31:00,
2013-10-12 15:36:00,71.8,52.1,30.17,WSW,247,0.0,2.7,50,0.00,,,0.00,WUHU21623XXSP,2013-10-12 19:36:00,
2013-10-12 15:41:00,71.4,52.8,30.17,NNE,22,2.9,2.9,52,0.00,,,0.00,WUHU21623XXSP,2013-10-12 19:41:00,
2013-10-12 15:46:00,72.0,52.8,30.18,WSW,247,0.0,2.9,51,0.00,,,0.00,WUHU21623XXSP,2013-10-12 19:46:00,
2013-10-12 15:51:00,71.2,52.7,30.18,WSW,247,0.0,4.7,52,0.00,,,0.00,WUHU21623XXSP,2013-10-12 19:51:00,
2013-10-12 15:56:00,71.6,53.5,30.18,WSW,247,0.0,4.7,53,0.00,,,0.00,WUHU21623XXSP,2013-10-12 19:56:00,
2013-10-12 16:01:00,71.4,51.8,30.17,WSW,247,0.0,0.0,50,0.00,,,0.00,WUHU21623XXSP,2013-10-12 20:01:00,
2013-10-12 16:06:00,71.8,53.2,30.17,WSW,247,4.3,4.3,52,0.00,,,0.00,WUHU21623XXSP,2013-10-12 20:06:00,
2013-10-12 16:11:00,72.3,53.6,30.17,WSW,247,0.0,4.3,52,0.00,,,0.00,WUHU21623XXSP,2013-10-12 20:11:00,
2013-10-12 16:16:00,71.8,53.7,30.17,WSW,247,0.0,2.9,53,0.00,,,0.00,WUHU21623XXSP,2013-10-12 20:16:00,
2013-10-12 16:21:00,71.8,53.2,30.18,WSW,247,0.0,2.9,52,0.00,,,0.00,WUHU21623XXSP,2013-10-12 20:21:00,
2013-10-12 16:26:00,71.4,52.8,30.17,WSW,247,0.0,1.3,52,0.00,,,0.00,WUHU21623XXSP,2013-10-12 20:26:00,
2013-10-12 16:31:00,71.4,52.8,30.17,WSW,247,0.0,1.3,52,0.00,,,0.00,WUHU21623XXSP,2013-10-12 20:31:00,
2013-10-12 16:36:00,71.2,52.7,30.17,WSW,247,1.8,2.5,52,0.00,,,0.00,WUHU21623XXSP,2013-10-12 20:36:00,
2013-10-12 16:41:00,70.7,52.2,30.17,WSW,247,0.0,2.9,52,0.00,,,0.00,WUHU21623XXSP,2013-10-12 20:41:00,
2013-10-12 16:46:00,70.7,53.2,30.17,WSW,247,0.0,2.9,54,0.00,,,0.00,WUHU21623XXSP,2013-10-12 20:46:00,
2013-10-12 16:51:00,70.7,53.2,30.17,WSW,247,0.0,0.0,54,0.00,,,0.00,WUHU21623XXSP,2013-10-12 20:51:00,
2013-10-12 16:56:00,70.9,53.3,30.18,WSW,247,0.0,0.0,54,0.00,,,0.00,WUHU21623XXSP,2013-10-12 20:56:00,
2013-10-12 17:01:00,70.3,52.9,30.17,WSW,247,0.0,0.0,54,0.00,,,0.00,WUHU21623XXSP,2013-10-12 21:01:00,
2013-10-12 17:06:00,70.0,52.0,30.17,WSW,247,2.9,2.9,53,0.00,,,0.00,WUHU21623XXSP,2013-10-12 21:06:00,
2013-10-12 17:11:00,69.6,52.2,30.18,WSW,247,0.0,2.9,54,0.00,,,0.00,WUHU21623XXSP,2013-10-12 21:11:00,
2013-10-12 17:16:00,69.4,52.5,30.17,WSW,247,0.0,0.0,55,0.00,,,0.00,WUHU21623XXSP,2013-10-12 21:16:00,
2013-10-12 17:21:00,69.3,51.9,30.17,WSW,247,0.0,0.0,54,0.00,,,0.00,WUHU21623XXSP,2013-10-12 21:21:00,
2013-10-12 17:26:00,69.1,52.2,30.18,WSW,247,0.0,4.9,55,0.00,,,0.00,WUHU21623XXSP,2013-10-12 21:26:00,
2013-10-12 17:31:00,68.7,51.4,30.17,WSW,247,0.0,5.6,54,0.00,,,0.00,WUHU21623XXSP,2013-10-12 21:31:00,
2013-10-12 17:36:00,68.5,51.7,30.17,WSW,247,0.0,5.6,55,0.00,,,0.00,WUHU21623XXSP,2013-10-12 21:36:00,
2013-10-12 17:41:00,68.2,51.8,30.17,East,90,0.0,0.0,56,0.00,,,0.00,WUHU21623XXSP,2013-10-12 21:41:00,
2013-10-12 17:46:00,67.6,51.3,30.18,NNE,22,0.0,0.0,56,0.00,,,0.00,WUHU21623XXSP,2013-10-12 21:46:00,
2013-10-12 17:51:00,67.3,51.5,30.17,NNE,22,0.0,0.0,57,0.00,,,0.00,WUHU21623XXSP,2013-10-12 21:51:00,
2013-10-12 17:56:00,66.9,51.2,30.18,NNE,22,0.0,0.0,57,0.00,,,0.00,WUHU21623XXSP,2013-10-12 21:56:00,
2013-10-12 18:01:00,66.2,51.5,30.17,NNE,22,0.0,0.0,59,0.00,,,0.00,WUHU21623XXSP,2013-10-12 22:01:00,
2013-10-12 18:06:00,65.5,50.8,30.17,NNE,22,0.0,0.0,59,0.00,,,0.00,WUHU21623XXSP,2013-10-12 22:06:00,
2013-10-12 18:11:00,65.7,51.0,30.18,NNE,22,0.0,0.0,59,0.00,,,0.00,WUHU21623XXSP,2013-10-12 22:11:00,
2013-10-12 18:16:00,65.1,50.4,30.18,NNE,22,0.0,0.0,59,0.00,,,0.00,WUHU21623XXSP,2013-10-12 22:16:00,
2013-10-12 18:21:00,64.9,50.7,30.18,NNE,22,0.0,0.0,60,0.00,,,0.00,WUHU21623XXSP,2013-10-12 22:21:00,
2013-10-12 18:26:00,64.6,50.8,30.18,NNE,22,0.0,0.0,61,0.00,,,0.00,WUHU21623XXSP,2013-10-12 22:26:00,
2013-10-12 18:31:00,64.2,50.9,30.18,NNE,22,0.0,0.0,62,0.00,,,0.00,WUHU21623XXSP,2013-10-12 22:31:00,
2013-10-12 18:36:00,64.4,50.6,30.18,NNE,22,0.0,0.9,61,0.00,,,0.00,WUHU21623XXSP,2013-10-12 22:36:00,
2013-10-12 18:41:00,64.4,50.6,30.18,NNE,22,0.0,0.9,61,0.00,,,0.00,WUHU21623XXSP,2013-10-12 22:41:00,
2013-10-12 18:46:00,64.0,50.7,30.18,NNE,22,0.0,0.0,62,0.00,,,0.00,WUHU21623XXSP,2013-10-12 22:46:00,
2013-10-12 18:51:00,64.0,51.1,30.18,NNE,22,0.0,0.0,63,0.00,,,0.00,WUHU21623XXSP,2013-10-12 22:51:00,
2013-10-12 18:56:00,63.7,50.8,30.18,NNE,22,0.0,0.0,63,0.00,,,0.00,WUHU21623XXSP,2013-10-12 22:56:00,
2013-10-12 19:01:00,63.9,51.0,30.18,NNE,22,0.0,0.0,63,0.00,,,0.00,WUHU21623XXSP,2013-10-12 23:01:00,
2013-10-12 19:06:00,63.7,51.2,30.18,NNE,22,0.0,0.0,64,0.00,,,0.00,WUHU21623XXSP,2013-10-12 23:06:00,
2013-10-12 19:11:00,63.3,50.9,30.19,NNE,22,0.0,0.0,64,0.00,,,0.00,WUHU21623XXSP,2013-10-12 23:11:00,
2013-10-12 19:16:00,63.3,51.3,30.19,NNE,22,0.0,1.3,65,0.00,,,0.00,WUHU21623XXSP,2013-10-12 23:16:00,
2013-10-12 19:21:00,63.1,51.1,30.19,NNE,22,0.0,1.3,65,0.00,,,0.00,WUHU21623XXSP,2013-10-12 23:21:00,
2013-10-12 19:26:00,63.1,51.5,30.19,NNE,22,0.0,0.0,66,0.00,,,0.00,WUHU21623XXSP,2013-10-12 23:26:00,
2013-10-12 19:31:00,62.6,51.0,30.19,NNE,22,3.4,3.4,66,0.00,,,0.00,WUHU21623XXSP,2013-10-12 23:31:00,
2013-10-12 19:36:00,62.4,51.3,30.19,NNE,22,0.0,3.4,67,0.00,,,0.00,WUHU21623XXSP,2013-10-12 23:36:00,
2013-10-12 19:41:00,62.2,51.1,30.19,NNE,22,4.0,4.0,67,0.00,,,0.00,WUHU21623XXSP,2013-10-12 23:41:00,
2013-10-12 19:46:00,61.7,51.1,30.19,NNE,22,0.0,4.0,68,0.00,,,0.00,WUHU21623XXSP,2013-10-12 23:46:00,
2013-10-12 19:51:00,61.7,51.5,30.20,NNE,22,0.0,2.0,69,0.00,,,0.00,WUHU21623XXSP,2013-10-12 23:51:00,
2013-10-12 19:56:00,61.3,51.2,30.20,NNE,22,1.8,2.0,69,0.00,,,0.00,WUHU21623XXSP,2013-10-12 23:56:00,
2013-10-12 20:01:00,61.0,51.2,30.20,NNE,22,1.3,1.8,70,0.00,,,0.00,WUHU21623XXSP,2013-10-13 00:01:00,
2013-10-12 20:06:00,60.6,50.9,30.20,NNE,22,0.0,1.3,70,0.00,,,0.00,WUHU21623XXSP,2013-10-13 00:06:00,
2013-10-12 20:11:00,60.4,51.1,30.20,NNE,22,1.8,1.8,71,0.00,,,0.00,WUHU21623XXSP,2013-10-13 00:11:00,
2013-10-12 20:16:00,60.1,51.1,30.20,NNE,22,0.0,1.8,72,0.00,,,0.00,WUHU21623XXSP,2013-10-13 00:16:00,
2013-10-12 20:21:00,59.7,50.7,30.20,NNE,22,3.8,3.8,72,0.00,,,0.00,WUHU21623XXSP,2013-10-13 00:21:00,
2013-10-12 20:26:00,59.7,50.7,30.20,NNE,22,1.8,3.8,72,0.00,,,0.00,WUHU21623XXSP,2013-10-13 00:26:00,
2013-10-12 20:31:00,59.4,50.4,30.21,NNE,22,0.0,2.5,72,0.00,,,0.00,WUHU21623XXSP,2013-10-13 00:31:00,
2013-10-12 20:36:00,58.8,50.2,30.21,NNE,22,0.0,2.5,73,0.00,,,0.00,WUHU21623XXSP,2013-10-13 00:36:00,
2013-10-12 20:41:00,58.8,50.5,30.21,NNE,22,0.0,6.5,74,0.00,,,0.00,WUHU21623XXSP,2013-10-13 00:41:00,
2013-10-12 20:46:00,58.8,50.5,30.21,NNE,22,0.0,6.5,74,0.00,,,0.00,WUHU21623XXSP,2013-10-13 00:46:00,
2013-10-12 20:51:00,58.6,50.7,30.21,NNE,22,0.0,2.9,75,0.00,,,0.00,WUHU21623XXSP,2013-10-13 00:51:00,
2013-10-12 20:56:00,58.5,50.5,30.21,NNE,22,4.9,4.9,75,0.00,,,0.00,WUHU21623XXSP,2013-10-13 00:56:00,
2013-10-12 21:01:00,58.1,50.2,30.22,NNE,22,0.0,4.9,75,0.00,,,0.00,WUHU21623XXSP,2013-10-13 01:01:00,
2013-10-12 21:06:00,57.9,50.4,30.22,NNE,22,0.0,0.0,76,0.00,,,0.00,WUHU21623XXSP,2013-10-13 01:06:00,
2013-10-12 21:11:00,57.9,50.4,30.22,NNE,22,0.0,1.1,76,0.00,,,0.00,WUHU21623XXSP,2013-10-13 01:11:00,
2013-10-12 21:16:00,57.7,50.2,30.23,NNE,22,0.0,4.7,76,0.00,,,0.00,WUHU21623XXSP,2013-10-13 01:16:00,
2013-10-12 21:21:00,57.7,50.5,30.23,NNE,22,5.4,5.4,77,0.00,,,0.00,WUHU21623XXSP,2013-10-13 01:21:00,
2013-10-12 21:26:00,57.4,49.8,30.22,NNE,22,1.1,5.4,76,0.00,,,0.00,WUHU21623XXSP,2013-10-13 01:26:00,
2013-10-12 21:31:00,57.4,50.2,30.23,NNE,22,0.0,1.1,77,0.00,,,0.00,WUHU21623XXSP,2013-10-13 01:31:00,
2013-10-12 21:36:00,57.0,49.8,30.23,NNE,22,0.0,3.1,77,0.00,,,0.00,WUHU21623XXSP,2013-10-13 01:36:00,
2013-10-12 21:41:00,57.0,49.8,30.23,NNE,22,0.0,3.4,77,0.00,,,0.00,WUHU21623XXSP,2013-10-13 01:41:00,
2013-10-12 21:46:00,57.0,49.8,30.23,NNE,22,2.5,3.4,77,0.00,,,0.00,WUHU21623XXSP,2013-10-13 01:46:00,
2013-10-12 21:51:00,56.8,49.6,30.24,NNE,22,4.7,4.7,77,0.00,,,0.00,WUHU21623XXSP,2013-10-13 01:51:00,
2013-10-12 21:56:00,56.8,50.0,30.23,NNE,22,0.0,4.7,78,0.00,,,0.00,WUHU21623XXSP,2013-10-13 01:56:00,
2013-10-12 21:58:00,56.8,50.0,30.23,NNE,22,0.0,4.7,78,0.00,,,0.00,WUHU21623XXSP,2013-10-13 01:58:00,
2013-10-12 22:03:00,56.5,49.6,30.24,NNE,22,0.0,0.0,78,0.00,,,0.00,WUHU21623XXSP,2013-10-13 02:03:00,
2013-10-12 22:08:00,56.3,49.5,30.24,NNE,22,0.0,0.0,78,0.00,,,0.00,WUHU21623XXSP,2013-10-13 02:08:00,
2013-10-12 22:13:00,56.1,49.3,30.24,NNE,22,2.2,2.2,78,0.00,,,0.00,WUHU21623XXSP,2013-10-13 02:13:00,
2013-10-12 22:18:00,56.1,49.3,30.24,NNE,22,0.0,2.2,78,0.00,,,0.00,WUHU21623XXSP,2013-10-13 02:18:00,
2013-10-12 22:23:00,55.9,49.1,30.24,NNE,22,0.0,4.3,78,0.00,,,0.00,WUHU21623XXSP,2013-10-13 02:23:00,
2013-10-12 22:28:00,55.8,48.9,30.24,NNE,22,0.0,4.3,78,0.00,,,0.00,WUHU21623XXSP,2013-10-13 02:28:00,
2013-10-12 22:33:00,55.8,48.9,30.24,NNE,22,0.0,1.6,78,0.00,,,0.00,WUHU21623XXSP,2013-10-13 02:33:00,
2013-10-12 22:38:00,55.6,48.8,30.24,NNE,22,0.0,1.6,78,0.00,,,0.00,WUHU21623XXSP,2013-10-13 02:38:00,
2013-10-12 22:43:00,55.4,48.9,30.25,NNE,22,0.0,0.0,79,0.00,,,0.00,WUHU21623XXSP,2013-10-13 02:43:00,
2013-10-12 22:48:00,55.2,48.8,30.25,NNE,22,0.0,0.0,79,0.00,,,0.00,WUHU21623XXSP,2013-10-13 02:48:00,
2013-10-12 22:53:00,55.2,48.8,30.25,NNE,22,0.0,0.0,79,0.00,,,0.00,WUHU21623XXSP,2013-10-13 02:53:00,
2013-10-12 22:58:00,55.2,48.8,30.25,NNE,22,0.0,0.0,79,0.00,,,0.00,WUHU21623XXSP,2013-10-13 02:58:00,
2013-10-12 23:03:00,55.0,48.6,30.25,NNE,22,0.0,0.0,79,0.00,,,0.00,WUHU21623XXSP,2013-10-13 03:03:00,
2013-10-12 23:08:00,55.0,49.0,30.25,NNE,22,0.0,0.0,80,0.00,,,0.00,WUHU21623XXSP,2013-10-13 03:08:00,
2013-10-12 23:13:00,55.2,48.8,30.26,NNE,22,0.0,0.0,79,0.00,,,0.00,WUHU21623XXSP,2013-10-13 03:13:00,
2013-10-12 23:18:00,55.0,48.6,30.26,NNE,22,0.0,0.0,79,0.00,,,0.00,WUHU21623XXSP,2013-10-13 03:18:00,
2013-10-12 23:23:00,55.0,49.0,30.26,NNE,22,0.0,0.0,80,0.00,,,0.00,WUHU21623XXSP,2013-10-13 03:23:00,
2013-10-12 23:28:00,54.9,48.4,30.26,NNE,22,0.0,0.0,79,0.00,,,0.00,WUHU21623XXSP,2013-10-13 03:28:00,
2013-10-12 23:33:00,55.0,48.6,30.26,NNE,22,4.5,4.5,79,0.00,,,0.00,WUHU21623XXSP,2013-10-13 03:33:00,
2013-10-12 23:38:00,55.2,48.8,30.26,NNE,22,0.0,4.5,79,0.00,,,0.00,WUHU21623XXSP,2013-10-13 03:38:00,
2013-10-12 23:43:00,55.0,48.6,30.26,NNE,22,0.0,0.0,79,0.00,,,0.00,WUHU21623XXSP,2013-10-13 03:43:00,
2013-10-12 23:48:00,54.7,48.3,30.27,NNE,22,0.0,0.0,79,0.00,,,0.00,WUHU21623XXSP,2013-10-13 03:48:00,
2013-10-12 23:53:00,54.3,47.9,30.26,NNE,22,0.0,0.0,79,0.00,,,0.00,WUHU21623XXSP,2013-10-13 03:53:00,
2013-10-12 23:58:00,54.0,48.0,30.27,NNE,22,0.0,0.0,80,0.00,,,0.00,WUHU21623XXSP,2013-10-13 03:58:00,